createdAt,value
2019-03-26T00:00:52.771Z,102571.71
2019-03-26T00:01:58.687Z,102576.02
2019-03-26T00:03:05.250Z,102572.16
2019-03-26T00:04:10.728Z,102567.03
2019-03-26T00:05:16.307Z,102566.89
2019-03-26T00:06:23.454Z,102569.44
2019-03-26T00:07:30.054Z,102565.73
2019-03-26T00:08:36.681Z,102571.96
2019-03-26T00:09:44.027Z,102570.43
2019-03-26T00:10:49.777Z,102574.31
2019-03-26T00:11:56.762Z,102570.47
2019-03-26T00:13:02.350Z,102578.44
2019-03-26T00:14:08.439Z,102574.31
2019-03-26T00:15:14.214Z,102577.53
2019-03-26T00:16:20.896Z,102573.28
2019-03-26T00:17:26.724Z,102577.03
2019-03-26T00:18:34.023Z,102582.27
2019-03-26T00:19:40.282Z,102587.45
2019-03-26T00:20:47.099Z,102587.40
2019-03-26T00:21:54.323Z,102589.30
2019-03-26T00:22:59.820Z,102593.21
2019-03-26T00:24:05.701Z,102589.84
2019-03-26T00:25:11.247Z,102588.77
2019-03-26T00:26:17.494Z,102594.09
2019-03-26T00:27:23.166Z,102591.30
2019-03-26T00:28:29.674Z,102587.81
2019-03-26T00:29:35.326Z,102589.38
2019-03-26T00:30:41.386Z,102583.10
2019-03-26T00:31:47.175Z,102583.41
2019-03-26T00:32:55.724Z,102584.91
2019-03-26T00:34:02.094Z,102589.69
2019-03-26T00:35:07.714Z,102593.14
2019-03-26T00:36:13.447Z,102584.08
2019-03-26T00:37:19.883Z,102592.80
2019-03-26T00:38:25.642Z,102588.91
2019-03-26T00:39:32.326Z,102586.08
2019-03-26T00:40:40.250Z,102588.17
2019-03-26T00:41:46.719Z,102585.47
2019-03-26T00:42:53.625Z,102587.25
2019-03-26T00:43:59.934Z,102584.39
2019-03-26T00:45:05.986Z,102573.44
2019-03-26T00:46:12.035Z,102579.88
2019-03-26T00:47:19.829Z,102586.01
2019-03-26T00:48:26.404Z,102581.34
2019-03-26T00:49:34.199Z,102580.11
2019-03-26T00:50:40.731Z,102580.69
2019-03-26T00:51:46.743Z,102585.27
2019-03-26T00:52:54.217Z,102580.87
2019-03-26T00:54:01.864Z,102587.08
2019-03-26T00:55:21.718Z,102584.12
2019-03-26T00:56:16.808Z,102587.95
2019-03-26T00:57:23.237Z,102591.29
2019-03-26T00:58:29.217Z,102592.55
2019-03-26T00:59:36.165Z,102584.64
2019-03-26T01:00:43.668Z,102589.74
2019-03-26T01:01:50.160Z,102582.77
2019-03-26T01:02:56.359Z,102590.22
2019-03-26T01:04:02.877Z,102590.65
2019-03-26T01:05:09.093Z,102589.87
2019-03-26T01:06:15.154Z,102591.80
2019-03-26T01:07:21.306Z,102589.45
2019-03-26T01:08:26.752Z,102586.66
2019-03-26T01:09:32.285Z,102589.28
2019-03-26T01:10:38.677Z,102594.50
2019-03-26T01:11:45.228Z,102590.11
2019-03-26T01:12:52.017Z,102596.21
2019-03-26T01:14:00.760Z,102594.04
2019-03-26T01:15:07.518Z,102595.83
2019-03-26T01:16:13.524Z,102596.33
2019-03-26T01:17:20.009Z,102597.27
2019-03-26T01:18:26.397Z,102598.53
2019-03-26T01:19:31.905Z,102597.48
2019-03-26T01:20:38.711Z,102597.92
2019-03-26T01:21:45.451Z,102602.42
2019-03-26T01:22:52.356Z,102593.38
2019-03-26T01:23:58.470Z,102598.86
2019-03-26T01:25:04.734Z,102595.20
2019-03-26T01:26:10.786Z,102599.86
2019-03-26T01:27:17.973Z,102597.41
2019-03-26T01:28:25.736Z,102600.63
2019-03-26T01:29:32.779Z,102598.66
2019-03-26T01:30:40.284Z,102604.82
2019-03-26T01:31:46.264Z,102606.75
2019-03-26T01:32:52.397Z,102606.45
2019-03-26T01:33:58.412Z,102602.75
2019-03-26T01:35:05.271Z,102603.41
2019-03-26T01:36:11.056Z,102604.69
2019-03-26T01:37:17.405Z,102601.50
2019-03-26T01:38:24.712Z,102605.81
2019-03-26T01:39:30.736Z,102605.03
2019-03-26T01:40:38.075Z,102603.72
2019-03-26T01:41:44.206Z,102609.75
2019-03-26T01:42:51.129Z,102612.66
2019-03-26T01:43:56.895Z,102610.86
2019-03-26T01:45:03.018Z,102608.11
2019-03-26T01:46:09.773Z,102610.69
2019-03-26T01:47:17.299Z,102611.66
2019-03-26T01:48:23.323Z,102617.09
2019-03-26T01:49:30.633Z,102615.22
2019-03-26T01:50:36.758Z,102615.31
2019-03-26T01:51:43.727Z,102614.09
2019-03-26T01:52:49.979Z,102618.44
2019-03-26T01:53:55.738Z,102618.48
2019-03-26T01:55:02.093Z,102622.39
2019-03-26T01:56:07.819Z,102619.19
2019-03-26T01:57:14.271Z,102616.95
2019-03-26T01:58:20.056Z,102615.71
2019-03-26T01:59:26.565Z,102610.66
2019-03-26T02:00:32.331Z,102609.82
2019-03-26T02:01:38.056Z,102613.02
2019-03-26T02:02:44.260Z,102618.56
2019-03-26T02:03:52.024Z,102617.98
2019-03-26T02:05:00.331Z,102619.08
2019-03-26T02:06:06.987Z,102609.80
2019-03-26T02:07:12.797Z,102611.20
2019-03-26T02:08:20.411Z,102612.86
2019-03-26T02:09:25.818Z,102618.45
2019-03-26T02:10:32.639Z,102618.92
2019-03-26T02:11:38.649Z,102617.56
2019-03-26T02:12:48.427Z,102615.63
2019-03-26T02:13:55.766Z,102617.05
2019-03-26T02:15:02.308Z,102617.80
2019-03-26T02:16:08.810Z,102615.38
2019-03-26T02:17:15.158Z,102623.56
2019-03-26T02:18:21.438Z,102614.02
2019-03-26T02:19:27.722Z,102622.69
2019-03-26T02:20:33.959Z,102618.22
2019-03-26T02:21:39.693Z,102621.50
2019-03-26T02:22:45.628Z,102616.91
2019-03-26T02:23:51.627Z,102611.04
2019-03-26T02:24:58.074Z,102616.09
2019-03-26T02:26:03.509Z,102610.72
2019-03-26T02:27:09.530Z,102605.27
2019-03-26T02:28:16.832Z,102607.33
2019-03-26T02:29:24.034Z,102601.67
2019-03-26T02:30:30.477Z,102607.06
2019-03-26T02:31:36.839Z,102613.02
2019-03-26T02:32:43.462Z,102613.86
2019-03-26T02:33:49.142Z,102618.79
2019-03-26T02:34:56.777Z,102616.03
2019-03-26T02:36:02.902Z,102620.89
2019-03-26T02:37:08.908Z,102617.13
2019-03-26T02:38:15.471Z,102625.63
2019-03-26T02:39:21.644Z,102616.49
2019-03-26T02:40:28.993Z,102619.19
2019-03-26T02:41:37.871Z,102620.18
2019-03-26T02:42:44.251Z,102622.27
2019-03-26T02:43:50.240Z,102613.54
2019-03-26T02:44:56.369Z,102617.48
2019-03-26T02:46:03.453Z,102614.29
2019-03-26T02:47:09.597Z,102617.73
2019-03-26T02:48:15.913Z,102623.56
2019-03-26T02:49:22.031Z,102625.63
2019-03-26T02:50:28.541Z,102622.67
2019-03-26T02:51:34.593Z,102623.50
2019-03-26T02:52:40.275Z,102620.30
2019-03-26T02:53:46.361Z,102628.61
2019-03-26T02:54:52.429Z,102625.10
2019-03-26T02:55:58.078Z,102623.05
2019-03-26T02:57:05.574Z,102622.16
2019-03-26T02:58:12.458Z,102621.27
2019-03-26T02:59:19.326Z,102620.16
2019-03-26T03:00:25.780Z,102617.56
2019-03-26T03:01:31.956Z,102620.33
2019-03-26T03:02:38.604Z,102612.75
2019-03-26T03:03:44.736Z,102607.20
2019-03-26T03:04:50.785Z,102609.50
2019-03-26T03:05:58.303Z,102609.50
2019-03-26T03:07:04.407Z,102608.55
2019-03-26T03:08:10.878Z,102604.28
2019-03-26T03:09:17.569Z,102618.34
2019-03-26T03:10:23.958Z,102613.16
2019-03-26T03:11:30.959Z,102616.91
2019-03-26T03:12:38.191Z,102611.48
2019-03-26T03:13:45.346Z,102619.61
2019-03-26T03:14:51.686Z,102610.84
2019-03-26T03:15:58.328Z,102619.38
2019-03-26T03:17:04.606Z,102617.84
2019-03-26T03:18:11.425Z,102619.03
2019-03-26T03:19:17.815Z,102622.66
2019-03-26T03:20:24.227Z,102620.15
2019-03-26T03:21:31.565Z,102622.05
2019-03-26T03:22:37.707Z,102628.30
2019-03-26T03:23:44.360Z,102628.05
2019-03-26T03:24:50.493Z,102621.70
2019-03-26T03:25:57.188Z,102620.86
2019-03-26T03:27:04.396Z,102623.37
2019-03-26T03:28:13.941Z,102622.92
2019-03-26T03:29:23.819Z,102625.14
2019-03-26T03:30:30.703Z,102623.22
2019-03-26T03:31:37.073Z,102629.27
2019-03-26T03:32:44.428Z,102627.74
2019-03-26T03:33:50.627Z,102623.80
2019-03-26T03:34:56.527Z,102623.98
2019-03-26T03:36:02.577Z,102628.87
2019-03-26T03:37:08.842Z,102631.31
2019-03-26T03:38:15.333Z,102630.78
2019-03-26T03:39:25.429Z,102633.14
2019-03-26T03:40:32.758Z,102630.85
2019-03-26T03:41:39.160Z,102631.89
2019-03-26T03:42:45.679Z,102640.92
2019-03-26T03:43:52.389Z,102640.80
2019-03-26T03:44:58.450Z,102640.43
2019-03-26T03:46:06.147Z,102643.04
2019-03-26T03:47:14.477Z,102643.40
2019-03-26T03:48:21.515Z,102642.57
2019-03-26T03:49:29.044Z,102644.02
2019-03-26T03:50:34.829Z,102640.92
2019-03-26T03:51:43.249Z,102647.85
2019-03-26T03:52:50.096Z,102641.11
2019-03-26T03:53:56.210Z,102640.22
2019-03-26T03:55:02.237Z,102636.55
2019-03-26T03:56:08.506Z,102639.38
2019-03-26T03:57:17.609Z,102636.20
2019-03-26T03:58:27.118Z,102640.57
2019-03-26T03:59:34.805Z,102649.44
2019-03-26T04:00:43.907Z,102639.05
2019-03-26T04:01:51.259Z,102645.84
2019-03-26T04:02:58.886Z,102642.45
2019-03-26T04:04:05.341Z,102639.32
2019-03-26T04:05:11.629Z,102640.02
2019-03-26T04:06:17.676Z,102646.16
2019-03-26T04:07:23.483Z,102646.67
2019-03-26T04:08:31.102Z,102651.45
2019-03-26T04:09:38.247Z,102648.63
2019-03-26T04:10:45.059Z,102650.55
2019-03-26T04:11:51.347Z,102652.21
2019-03-26T04:12:57.383Z,102641.16
2019-03-26T04:14:04.210Z,102649.45
2019-03-26T04:15:09.933Z,102651.67
2019-03-26T04:16:16.230Z,102653.04
2019-03-26T04:17:22.674Z,102649.80
2019-03-26T04:18:29.513Z,102645.89
2019-03-26T04:19:35.592Z,102653.36
2019-03-26T04:20:43.103Z,102652.56
2019-03-26T04:21:49.342Z,102656.74
2019-03-26T04:22:55.401Z,102657.91
2019-03-26T04:24:02.240Z,102654.85
2019-03-26T04:25:08.516Z,102649.16
2019-03-26T04:26:15.899Z,102652.31
2019-03-26T04:27:23.470Z,102647.36
2019-03-26T04:28:29.542Z,102653.06
2019-03-26T04:29:36.427Z,102641.98
2019-03-26T04:30:43.256Z,102649.48
2019-03-26T04:31:49.779Z,102653.45
2019-03-26T04:32:57.477Z,102641.06
2019-03-26T04:34:04.194Z,102648.84
2019-03-26T04:35:10.013Z,102638.78
2019-03-26T04:36:25.250Z,102642.86
2019-03-26T04:37:26.566Z,102641.57
2019-03-26T04:38:34.314Z,102642.45
2019-03-26T04:39:39.840Z,102641.91
2019-03-26T04:40:47.101Z,102643.05
2019-03-26T04:41:54.710Z,102642.45
2019-03-26T04:43:00.780Z,102639.19
2019-03-26T04:44:06.794Z,102645.73
2019-03-26T04:45:12.513Z,102643.67
2019-03-26T04:46:19.428Z,102643.45
2019-03-26T04:47:26.144Z,102648.55
2019-03-26T04:48:32.998Z,102640.74
2019-03-26T04:49:38.803Z,102634.25
2019-03-26T04:50:44.767Z,102643.91
2019-03-26T04:51:51.729Z,102642.45
2019-03-26T04:52:59.005Z,102639.66
2019-03-26T04:54:06.449Z,102636.31
2019-03-26T04:55:12.044Z,102638.62
2019-03-26T04:56:18.035Z,102639.69
2019-03-26T04:57:24.604Z,102641.78
2019-03-26T04:58:31.449Z,102643.61
2019-03-26T04:59:39.113Z,102643.66
2019-03-26T05:00:45.674Z,102646.09
2019-03-26T05:01:51.967Z,102651.41
2019-03-26T05:02:58.012Z,102660.44
2019-03-26T05:04:04.654Z,102662.63
2019-03-26T05:05:12.708Z,102658.78
2019-03-26T05:06:20.131Z,102657.80
2019-03-26T05:07:25.901Z,102656.58
2019-03-26T05:08:31.999Z,102661.45
2019-03-26T05:09:38.095Z,102654.30
2019-03-26T05:10:43.876Z,102652.67
2019-03-26T05:11:49.726Z,102657.37
2019-03-26T05:12:56.919Z,102650.63
2019-03-26T05:14:03.100Z,102653.33
2019-03-26T05:15:09.524Z,102650.73
2019-03-26T05:16:16.188Z,102651.00
2019-03-26T05:17:21.784Z,102647.63
2019-03-26T05:18:28.021Z,102642.86
2019-03-26T05:19:34.247Z,102649.77
2019-03-26T05:20:41.507Z,102650.37
2019-03-26T05:21:48.260Z,102649.80
2019-03-26T05:22:53.691Z,102649.98
2019-03-26T05:23:59.537Z,102651.84
2019-03-26T05:25:06.743Z,102645.56
2019-03-26T05:26:13.366Z,102654.44
2019-03-26T05:27:21.958Z,102645.32
2019-03-26T05:28:27.636Z,102649.57
2019-03-26T05:29:36.755Z,102652.59
2019-03-26T05:30:42.831Z,102647.44
2019-03-26T05:31:48.599Z,102653.40
2019-03-26T05:32:54.634Z,102651.98
2019-03-26T05:34:01.788Z,102649.73
2019-03-26T05:35:08.230Z,102647.97
2019-03-26T05:36:15.530Z,102638.97
2019-03-26T05:37:22.385Z,102644.77
2019-03-26T05:38:29.374Z,102648.15
2019-03-26T05:39:37.106Z,102647.09
2019-03-26T05:40:43.079Z,102644.63
2019-03-26T05:41:49.264Z,102644.22
2019-03-26T05:42:56.606Z,102645.27
2019-03-26T05:44:02.932Z,102646.44
2019-03-26T05:45:10.170Z,102644.73
2019-03-26T05:46:16.556Z,102645.56
2019-03-26T05:47:23.494Z,102652.11
2019-03-26T05:48:29.824Z,102650.37
2019-03-26T05:49:35.491Z,102650.98
2019-03-26T05:50:42.999Z,102651.61
2019-03-26T05:51:49.795Z,102646.48
2019-03-26T05:52:55.507Z,102651.14
2019-03-26T05:54:01.755Z,102656.92
2019-03-26T05:55:08.300Z,102653.86
2019-03-26T05:56:15.429Z,102655.39
2019-03-26T05:57:21.360Z,102657.91
2019-03-26T05:58:27.319Z,102657.75
2019-03-26T05:59:33.486Z,102658.68
2019-03-26T06:00:40.385Z,102655.80
2019-03-26T06:01:46.875Z,102664.86
2019-03-26T06:02:52.824Z,102661.81
2019-03-26T06:03:58.560Z,102672.00
2019-03-26T06:05:04.287Z,102667.37
2019-03-26T06:06:10.337Z,102667.37
2019-03-26T06:07:17.698Z,102669.73
2019-03-26T06:08:23.691Z,102670.41
2019-03-26T06:09:29.622Z,102677.75
2019-03-26T06:10:38.140Z,102673.41
2019-03-26T06:11:43.628Z,102678.38
2019-03-26T06:12:50.324Z,102676.63
2019-03-26T06:13:57.367Z,102676.45
2019-03-26T06:15:03.810Z,102672.73
2019-03-26T06:16:10.426Z,102675.81
2019-03-26T06:17:17.105Z,102675.45
2019-03-26T06:18:22.784Z,102672.67
2019-03-26T06:19:29.550Z,102674.67
2019-03-26T06:20:36.111Z,102674.69
2019-03-26T06:21:43.766Z,102678.90
2019-03-26T06:22:51.239Z,102675.97
2019-03-26T06:23:58.067Z,102681.41
2019-03-26T06:25:04.636Z,102679.89
2019-03-26T06:26:10.672Z,102682.42
2019-03-26T06:27:17.224Z,102675.97
2019-03-26T06:28:23.556Z,102685.03
2019-03-26T06:29:30.394Z,102686.05
2019-03-26T06:30:37.168Z,102685.64
2019-03-26T06:31:43.575Z,102684.09
2019-03-26T06:32:49.905Z,102682.80
2019-03-26T06:33:55.654Z,102686.11
2019-03-26T06:35:01.170Z,102686.33
2019-03-26T06:36:07.173Z,102677.98
2019-03-26T06:37:18.152Z,102683.16
2019-03-26T06:38:22.396Z,102682.80
2019-03-26T06:39:30.060Z,102688.23
2019-03-26T06:40:36.442Z,102688.94
2019-03-26T06:41:43.035Z,102687.98
2019-03-26T06:42:50.133Z,102690.67
2019-03-26T06:43:56.561Z,102693.98
2019-03-26T06:45:02.863Z,102689.98
2019-03-26T06:46:08.655Z,102698.41
2019-03-26T06:47:15.514Z,102703.16
2019-03-26T06:48:22.008Z,102700.53
2019-03-26T06:49:28.020Z,102706.33
2019-03-26T06:50:34.284Z,102703.64
2019-03-26T06:51:41.025Z,102711.09
2019-03-26T06:52:47.122Z,102708.70
2019-03-26T06:53:54.836Z,102708.45
2019-03-26T06:55:01.115Z,102713.77
2019-03-26T06:56:07.945Z,102711.53
2019-03-26T06:57:13.772Z,102716.81
2019-03-26T06:58:20.776Z,102712.39
2019-03-26T06:59:26.906Z,102710.98
2019-03-26T07:00:34.282Z,102714.81
2019-03-26T07:01:40.097Z,102712.63
2019-03-26T07:02:47.853Z,102711.80
2019-03-26T07:03:54.802Z,102724.58
2019-03-26T07:05:00.692Z,102715.08
2019-03-26T07:06:06.471Z,102715.52
2019-03-26T07:07:12.687Z,102722.97
2019-03-26T07:08:18.959Z,102719.39
2019-03-26T07:09:25.529Z,102723.47
2019-03-26T07:10:31.684Z,102734.42
2019-03-26T07:11:37.618Z,102733.53
2019-03-26T07:12:45.177Z,102733.59
2019-03-26T07:13:51.318Z,102735.48
2019-03-26T07:14:57.450Z,102734.17
2019-03-26T07:16:03.346Z,102734.95
2019-03-26T07:17:09.783Z,102734.77
2019-03-26T07:18:15.876Z,102734.42
2019-03-26T07:19:22.959Z,102740.28
2019-03-26T07:20:29.087Z,102739.13
2019-03-26T07:21:34.896Z,102740.30
2019-03-26T07:22:40.920Z,102738.18
2019-03-26T07:23:47.476Z,102739.84
2019-03-26T07:24:53.686Z,102736.89
2019-03-26T07:26:00.561Z,102741.23
2019-03-26T07:27:07.455Z,102740.72
2019-03-26T07:28:13.481Z,102747.61
2019-03-26T07:29:20.117Z,102744.23
2019-03-26T07:30:43.288Z,102742.16
2019-03-26T07:31:50.223Z,102741.23
2019-03-26T07:32:56.780Z,102744.84
2019-03-26T07:34:02.514Z,102740.30
2019-03-26T07:35:08.706Z,102743.59
2019-03-26T07:36:15.584Z,102747.70
2019-03-26T07:37:22.353Z,102744.13
2019-03-26T07:38:29.172Z,102745.84
2019-03-26T07:39:38.921Z,102744.70
2019-03-26T07:40:43.783Z,102745.89
2019-03-26T07:41:50.970Z,102742.81
2019-03-26T07:42:57.560Z,102744.81
2019-03-26T07:44:03.126Z,102749.44
2019-03-26T07:45:10.103Z,102753.12
2019-03-26T07:46:15.792Z,102754.58
2019-03-26T07:47:23.184Z,102752.26
2019-03-26T07:48:29.826Z,102752.09
2019-03-26T07:49:35.801Z,102753.23
2019-03-26T07:50:41.804Z,102742.63
2019-03-26T07:51:48.429Z,102747.60
2019-03-26T07:52:56.061Z,102742.48
2019-03-26T07:54:03.524Z,102743.82
2019-03-26T07:55:10.026Z,102743.28
2019-03-26T07:56:17.806Z,102736.55
2019-03-26T07:57:23.480Z,102737.12
2019-03-26T07:58:33.095Z,102736.55
2019-03-26T07:59:37.610Z,102740.19
2019-03-26T08:00:44.397Z,102736.32
2019-03-26T08:01:50.163Z,102739.30
2019-03-26T08:02:55.699Z,102747.34
2019-03-26T08:04:02.530Z,102748.57
2019-03-26T08:05:08.451Z,102740.03
2019-03-26T08:06:15.647Z,102743.45
2019-03-26T08:07:25.055Z,102740.60
2019-03-26T08:08:31.090Z,102745.33
2019-03-26T08:09:38.078Z,102747.03
2019-03-26T08:10:44.664Z,102744.68
2019-03-26T08:11:50.701Z,102740.80
2019-03-26T08:12:56.580Z,102746.00
2019-03-26T08:14:02.185Z,102744.83
2019-03-26T08:15:09.389Z,102735.20
2019-03-26T08:16:15.793Z,102739.94
2019-03-26T08:17:22.310Z,102744.81
2019-03-26T08:18:28.230Z,102742.19
2019-03-26T08:19:34.228Z,102740.95
2019-03-26T08:20:40.322Z,102743.12
2019-03-26T08:21:47.616Z,102751.28
2019-03-26T08:22:53.300Z,102744.39
2019-03-26T08:24:00.689Z,102745.20
2019-03-26T08:25:06.987Z,102750.06
2019-03-26T08:26:12.674Z,102750.57
2019-03-26T08:27:18.615Z,102751.67
2019-03-26T08:28:24.282Z,102744.92
2019-03-26T08:29:30.617Z,102741.16
2019-03-26T08:30:36.149Z,102742.02
2019-03-26T08:31:41.975Z,102739.18
2019-03-26T08:32:48.472Z,102745.52
2019-03-26T08:33:55.101Z,102747.73
2019-03-26T08:35:00.882Z,102750.72
2019-03-26T08:36:06.952Z,102750.16
2019-03-26T08:37:13.794Z,102751.87
2019-03-26T08:38:20.569Z,102750.54
2019-03-26T08:39:27.226Z,102748.98
2019-03-26T08:40:33.582Z,102748.46
2019-03-26T08:41:40.465Z,102746.28
2019-03-26T08:42:46.986Z,102741.75
2019-03-26T08:43:53.976Z,102736.04
2019-03-26T08:45:00.841Z,102699.58
2019-03-26T08:46:07.168Z,102740.82
2019-03-26T08:47:14.118Z,102737.63
2019-03-26T08:48:21.420Z,102734.25
2019-03-26T08:49:30.853Z,102739.17
2019-03-26T08:50:37.706Z,102741.52
2019-03-26T08:51:44.209Z,102742.13
2019-03-26T08:52:50.146Z,102744.03
2019-03-26T08:53:57.117Z,102717.50
2019-03-26T08:55:04.529Z,102692.97
2019-03-26T08:56:10.064Z,102741.98
2019-03-26T08:57:15.808Z,102740.23
2019-03-26T08:58:21.723Z,102743.45
2019-03-26T08:59:27.740Z,102744.07
2019-03-26T09:00:33.249Z,102740.50
2019-03-26T09:01:39.814Z,102738.62
2019-03-26T09:02:45.853Z,102712.44
2019-03-26T09:03:53.540Z,102738.76
2019-03-26T09:04:59.658Z,102734.52
2019-03-26T09:06:06.674Z,102742.73
2019-03-26T09:07:13.197Z,102745.47
2019-03-26T09:08:25.351Z,102747.84
2019-03-26T09:09:27.527Z,102747.77
2019-03-26T09:10:33.171Z,102654.31
2019-03-26T09:11:40.037Z,102606.34
2019-03-26T09:12:45.779Z,102620.42
2019-03-26T09:13:52.721Z,102742.34
2019-03-26T09:14:59.060Z,102699.86
2019-03-26T09:16:05.201Z,102598.21
2019-03-26T09:17:12.013Z,102725.98
2019-03-26T09:18:18.215Z,102738.23
2019-03-26T09:19:24.232Z,102734.97
2019-03-26T09:20:29.976Z,102737.30
2019-03-26T09:21:35.930Z,102739.78
2019-03-26T09:22:42.881Z,102743.11
2019-03-26T09:23:50.856Z,102738.82
2019-03-26T09:24:58.042Z,102740.98
2019-03-26T09:26:04.483Z,102738.96
2019-03-26T09:27:10.774Z,102728.61
2019-03-26T09:28:17.027Z,102603.25
2019-03-26T09:29:22.696Z,102729.90
2019-03-26T09:30:30.043Z,102737.09
2019-03-26T09:31:37.486Z,102730.75
2019-03-26T09:32:43.236Z,102731.23
2019-03-26T09:33:50.217Z,102731.42
2019-03-26T09:34:56.721Z,102733.57
2019-03-26T09:36:03.092Z,102732.84
2019-03-26T09:37:08.974Z,102733.27
2019-03-26T09:38:14.755Z,102729.89
2019-03-26T09:39:20.819Z,102732.81
2019-03-26T09:40:27.612Z,102727.50
2019-03-26T09:41:34.258Z,102727.30
2019-03-26T09:42:40.121Z,102731.23
2019-03-26T09:43:46.649Z,102736.45
2019-03-26T09:44:52.344Z,102731.56
2019-03-26T09:46:00.092Z,102735.05
2019-03-26T09:47:15.969Z,102732.41
2019-03-26T09:48:18.083Z,102739.05
2019-03-26T09:49:24.423Z,102736.64
2019-03-26T09:50:34.616Z,102737.75
2019-03-26T09:51:40.646Z,102739.39
2019-03-26T09:52:47.083Z,102745.64
2019-03-26T09:53:53.568Z,102744.47
2019-03-26T09:55:00.015Z,102742.00
2019-03-26T09:56:05.740Z,102741.99
2019-03-26T09:57:13.167Z,102743.44
2019-03-26T09:58:19.956Z,102750.99
2019-03-26T09:59:26.196Z,102753.52
2019-03-26T10:00:32.110Z,102746.00
2019-03-26T10:01:38.618Z,102743.08
2019-03-26T10:02:44.445Z,102752.63
2019-03-26T10:03:51.106Z,102735.61
2019-03-26T10:04:58.078Z,102742.77
2019-03-26T10:06:04.238Z,102738.58
2019-03-26T10:07:20.738Z,102748.16
2019-03-26T10:08:18.354Z,102745.31
2019-03-26T10:09:24.624Z,102744.67
2019-03-26T10:10:31.028Z,102751.47
2019-03-26T10:11:38.135Z,102751.55
2019-03-26T10:12:44.448Z,102758.06
2019-03-26T10:13:51.794Z,102745.01
2019-03-26T10:14:58.753Z,102746.73
2019-03-26T10:16:04.802Z,102740.38
2019-03-26T10:17:11.213Z,102741.03
2019-03-26T10:18:16.962Z,102751.02
2019-03-26T10:19:24.694Z,102752.13
2019-03-26T10:20:31.837Z,102750.18
2019-03-26T10:21:39.088Z,102746.27
2019-03-26T10:22:45.571Z,102751.15
2019-03-26T10:23:52.124Z,102749.75
2019-03-26T10:24:58.142Z,102745.94
2019-03-26T10:26:04.166Z,102747.53
2019-03-26T10:27:10.975Z,102751.09
2019-03-26T10:28:17.518Z,102741.75
2019-03-26T10:29:30.115Z,102743.86
2019-03-26T10:30:39.245Z,102743.25
2019-03-26T10:31:45.463Z,102740.89
2019-03-26T10:32:51.716Z,102742.88
2019-03-26T10:33:58.010Z,102749.42
2019-03-26T10:35:03.824Z,102751.86
2019-03-26T10:36:10.897Z,102753.89
2019-03-26T10:37:16.976Z,102751.94
2019-03-26T10:38:22.549Z,102747.77
2019-03-26T10:39:29.220Z,102745.82
2019-03-26T10:40:35.718Z,102755.83
2019-03-26T10:41:42.650Z,102748.52
2019-03-26T10:42:49.272Z,102749.38
2019-03-26T10:43:55.832Z,102752.52
2019-03-26T10:45:02.502Z,102742.64
2019-03-26T10:46:08.273Z,102745.49
2019-03-26T10:47:13.783Z,102744.75
2019-03-26T10:48:19.540Z,102745.09
2019-03-26T10:49:25.339Z,102740.94
2019-03-26T10:50:31.477Z,102746.77
2019-03-26T10:51:37.535Z,102744.16
2019-03-26T10:52:44.437Z,102749.77
2019-03-26T10:53:51.255Z,102740.41
2019-03-26T10:54:57.225Z,102741.14
2019-03-26T10:56:04.202Z,102743.66
2019-03-26T10:57:10.118Z,102745.23
2019-03-26T10:58:16.860Z,102745.50
2019-03-26T10:59:23.384Z,102740.19
2019-03-26T11:00:29.780Z,102739.66
2019-03-26T11:01:35.824Z,102742.31
2019-03-26T11:02:42.621Z,102744.94
2019-03-26T11:03:48.776Z,102731.28
2019-03-26T11:04:55.942Z,102738.47
2019-03-26T11:06:01.602Z,102732.10
2019-03-26T11:07:08.115Z,102735.92
2019-03-26T11:08:13.569Z,102731.70
2019-03-26T11:09:25.596Z,102729.66
2019-03-26T11:10:27.294Z,102735.34
2019-03-26T11:11:33.028Z,102734.47
2019-03-26T11:12:39.006Z,102730.41
2019-03-26T11:13:44.814Z,102733.38
2019-03-26T11:14:50.612Z,102733.67
2019-03-26T11:15:57.333Z,102731.97
2019-03-26T11:17:04.127Z,102734.61
2019-03-26T11:18:09.617Z,102740.00
2019-03-26T11:19:17.606Z,102737.11
2019-03-26T11:20:23.562Z,102736.42
2019-03-26T11:21:29.657Z,102732.20
2019-03-26T11:22:36.029Z,102729.58
2019-03-26T11:23:42.897Z,102728.91
2019-03-26T11:24:49.532Z,102731.75
2019-03-26T11:25:55.010Z,102726.14
2019-03-26T11:27:01.112Z,102721.22
2019-03-26T11:28:06.863Z,102728.16
2019-03-26T11:29:13.447Z,102729.83
2019-03-26T11:30:19.547Z,102729.38
2019-03-26T11:31:25.512Z,102732.39
2019-03-26T11:32:31.305Z,102737.76
2019-03-26T11:33:37.915Z,102734.25
2019-03-26T11:34:43.768Z,102732.98
2019-03-26T11:35:49.430Z,102732.27
2019-03-26T11:36:56.594Z,102722.95
2019-03-26T11:38:02.711Z,102730.99
2019-03-26T11:39:09.589Z,102730.08
2019-03-26T11:40:18.334Z,102725.02
2019-03-26T11:41:25.056Z,102721.96
2019-03-26T11:42:30.799Z,102729.58
2019-03-26T11:43:36.749Z,102717.15
2019-03-26T11:44:43.315Z,102712.52
2019-03-26T11:45:50.118Z,102708.27
2019-03-26T11:46:55.863Z,102720.08
2019-03-26T11:48:03.128Z,102712.61
2019-03-26T11:49:08.883Z,102714.91
2019-03-26T11:50:15.843Z,102714.73
2019-03-26T11:51:22.544Z,102713.58
2019-03-26T11:52:28.609Z,102712.16
2019-03-26T11:53:35.219Z,102725.41
2019-03-26T11:54:40.981Z,102719.16
2019-03-26T11:55:47.260Z,102713.88
2019-03-26T11:56:52.944Z,102714.34
2019-03-26T11:57:58.970Z,102714.83
2019-03-26T11:59:05.134Z,102704.52
2019-03-26T12:00:12.220Z,102714.73
2019-03-26T12:01:18.059Z,102714.83
2019-03-26T12:02:23.924Z,102711.50
2019-03-26T12:03:30.369Z,102713.78
2019-03-26T12:04:36.689Z,102704.70
2019-03-26T12:05:42.999Z,102708.63
2019-03-26T12:06:49.598Z,102701.77
2019-03-26T12:07:56.045Z,102704.83
2019-03-26T12:09:02.118Z,102712.13
2019-03-26T12:10:08.500Z,102707.87
2019-03-26T12:11:15.439Z,102699.68
2019-03-26T12:12:22.043Z,102706.17
2019-03-26T12:13:29.703Z,102700.87
2019-03-26T12:14:37.004Z,102701.86
2019-03-26T12:15:43.144Z,102698.88
2019-03-26T12:16:49.433Z,102690.78
2019-03-26T12:17:57.150Z,102693.00
2019-03-26T12:19:03.588Z,102688.99
2019-03-26T12:20:09.764Z,102699.17
2019-03-26T12:21:15.924Z,102693.37
2019-03-26T12:22:22.059Z,102688.75
2019-03-26T12:23:29.490Z,102684.17
2019-03-26T12:24:36.217Z,102681.33
2019-03-26T12:25:43.391Z,102681.95
2019-03-26T12:26:49.041Z,102684.19
2019-03-26T12:27:56.422Z,102681.30
2019-03-26T12:29:02.227Z,102672.53
2019-03-26T12:30:08.640Z,102676.57
2019-03-26T12:31:14.398Z,102670.47
2019-03-26T12:32:21.849Z,102668.79
2019-03-26T12:33:28.936Z,102665.21
2019-03-26T12:34:35.254Z,102665.61
2019-03-26T12:35:40.991Z,102667.89
2019-03-26T12:36:47.502Z,102662.10
2019-03-26T12:37:53.272Z,102670.09
2019-03-26T12:38:59.018Z,102665.49
2019-03-26T12:40:05.590Z,102665.51